Portada
METAR-TAF:

METAR-TAF

Aeropuertos :

Aeropuerto Internacional Yundum

Banjul, Gambia

latitud: 13-21N, longitud: 016-48W, altitud: 36 m

Observación

El informe se hizo hace 1 hora y 9 minutos, a las 00:00 UTC
Viento 2 kt con dirección variable
Temperatura 25°C
Humedad 89%
Presión 1012 hPa
Visibilidad 10 km o más
Escasas nubes a una altura de 1100 ft
Nubes dispersas a una altura de 11000 ft

METAR: GBYD 220000Z VRB02KT 9999 FEW011 SCT110 25/23 Q1012

Hora: 01:09 (01:09 UTC)

Pronóstico

El informe se hizo hace 1 hora y 39 minutos, a las 23:30 UTC
Pronóstico válido del 22 a las 00 UTC al 23 a las 06 UTC
Viento 7 kt del oeste
Visibilidad 10 km o más
Nubes dispersas a una altura de 1300 ft

TAF: GBYD 212330Z 2200/2306 28007KT 9999 SCT013

Observaciones y pronósticos meteorológicos de más de 4000 aeropuertos (mensajes METAR y TAF).

Los puntos amarillos y rojos representan las estaciones disponibles.

Ponga el ratón en el punto deseado para ver el nombre de la estación.

Haga clic para ver las observaciones y los pronósticos meteorológicos.

Para cambiar el mapa : haga clic en los botones verdes con una cruz de color negro para hacer un zoom, en el botón verde con un guión para alejar o en las flechas verdes para mapas adyacentes.


METAR-TAF: